Guadalupe, Arizona
Current Conditions -  °F | °C
As of 6:51 PM on Friday 19 Dec 2014 (Local Time) from KPHX Reporting Station
Few Clouds Few Clouds  
Wind Chill: 14°   Ceiling: Unl
Heat Index: 14°   Visibility: 10mi
Dew Point:   Wind: 7mph
Humidity: 55%   Direction: 230°SW
Pressure: 30.14"   Gusts: NA
Location:  33.364°N, 111.931°W
Report Text: KPHX 200151Z 23006KT 10SM FEW250 14/05 A3014 RMK AO2 SLP202 T01390050
Loading
Personal Weather Stations






























Interactive Weather Map New forecast layout! Learn more

10-Day Weather Forecast

Advertisements
Track Severe Weather on mobile